This is the latest recevied weather packets stored in our database for station/object K5NWZ. If no packets are shown the sender has not sent any weather packets the latest 10 day(s).
| Time | Temp. | Humidity | Pressure | Rain* | Wind** | Luminosity | Snow |
|---|---|---|---|---|---|---|---|
| 1778001885 | 2.78° C | 94% | 1024 hPa | 4.83 mm | - | 141 W/m² | - |
| 1778001584 | 2.78° C | 93% | 1024.1 hPa | 3.05 mm | - | 173 W/m² | - |
| 1778001281 | 2.22° C | 93% | 1024.4 hPa | 3.05 mm | - | 133 W/m² | - |
| 1778000978 | 2.78° C | 93% | 1024.4 hPa | 6.1 mm | - | 178 W/m² | - |
| 1778000675 | 2.78° C | 93% | 1024.2 hPa | 6.1 mm | - | 250 W/m² | - |
| 1778000370 | 2.78° C | 93% | 1024.1 hPa | 4.32 mm | - | 265 W/m² | - |
| 1778000066 | 2.22° C | 94% | 1024.2 hPa | 6.6 mm | - | 232 W/m² | - |
| 1777999761 | 2.22° C | 94% | 1024.1 hPa | 6.6 mm | - | 204 W/m² | - |
| 1777999458 | 2.22° C | 95% | 1024.1 hPa | 7.11 mm | - | 203 W/m² | - |
| 1777999156 | 2.22° C | 94% | 1024.1 hPa | 6.1 mm | - | 174 W/m² | - |
| 1777998855 | 2.22° C | 95% | 1024.1 hPa | 3.05 mm | - | 191 W/m² | - |
| 1777998554 | 2.22° C | 95% | 1024 hPa | 6.1 mm | - | 215 W/m² | - |
| 1777998249 | 1.67° C | 95% | 1024.2 hPa | 4.83 mm | - | 201 W/m² | - |
| 1777997946 | 1.67° C | 95% | 1024.1 hPa | 0 mm | - | 197 W/m² | - |
| 1777997643 | 1.67° C | 95% | 1024.2 hPa | 0 mm | - | 198 W/m² | - |
| 1777997340 | 1.67° C | 95% | 1024.5 hPa | 0 mm | - | 181 W/m² | - |
| 1777997039 | 2.22° C | 95% | 1024.6 hPa | 0 mm | - | 152 W/m² | - |
| 1777996735 | 1.67° C | 95% | 1024.5 hPa | 0 mm | - | 160 W/m² | - |
| 1777996430 | 1.67° C | 95% | 1024.6 hPa | 0 mm | - | 137 W/m² | - |
| 1777996128 | 1.67° C | 95% | 1024.6 hPa | 0 mm | - | 111 W/m² | - |
| 1777995824 | 1.67° C | 95% | 1024.5 hPa | 0 mm | - | 108 W/m² | - |
| 1777995515 | 1.67° C | 95% | 1024.7 hPa | 0 mm | - | 90 W/m² | - |
| 1777995212 | 1.67° C | 96% | 1024.7 hPa | 0 mm | - | 73 W/m² | - |
| 1777994909 | 1.11° C | 96% | 1024.6 hPa | 0 mm | - | 74 W/m² | - |
| 1777994606 | 1.11° C | 96% | 1024.5 hPa | 0 mm | - | 66 W/m² | - |
* Rain latest hour (hover to see other rain measurements)
** Current wind speed in m/s (hover to see current wind gust speed)